createdAt,value
2022-10-31T00:03:05.358Z,11.01
2022-10-31T00:08:06.205Z,10.94
2022-10-31T00:13:07.110Z,10.95
2022-10-31T00:18:11.001Z,10.89
2022-10-31T00:23:13.276Z,10.85
2022-10-31T00:28:14.118Z,10.84
2022-10-31T00:33:16.284Z,10.76
2022-10-31T00:38:17.102Z,10.73
2022-10-31T00:43:17.934Z,10.68
2022-10-31T00:48:20.068Z,10.62
2022-10-31T00:53:23.285Z,10.59
2022-10-31T00:58:24.084Z,10.55
2022-10-31T01:03:28.503Z,10.48
2022-10-31T01:08:29.900Z,10.47
2022-10-31T01:13:30.870Z,10.43
2022-10-31T01:18:33.416Z,10.40
2022-10-31T01:23:36.385Z,10.41
2022-10-31T01:28:39.979Z,10.37
2022-10-31T01:33:42.183Z,10.35
2022-10-31T01:38:43.379Z,10.34
2022-10-31T01:43:46.533Z,10.29
2022-10-31T01:48:49.826Z,10.25
2022-10-31T01:53:54.545Z,10.24
2022-10-31T01:58:56.968Z,10.19
2022-10-31T02:03:59.126Z,10.22
2022-10-31T02:09:02.538Z,10.16
2022-10-31T02:14:04.662Z,10.17
2022-10-31T02:19:14.385Z,10.11
2022-10-31T02:24:46.516Z,10.01
2022-10-31T02:30:13.193Z,10.06
2022-10-31T02:35:29.414Z,9.99
2022-10-31T02:40:37.724Z,10.04
2022-10-31T02:46:00.136Z,9.97
2022-10-31T02:51:05.835Z,10.00
2022-10-31T02:56:10.864Z,9.91
2022-10-31T03:01:40.224Z,9.95
2022-10-31T03:06:51.490Z,9.84
2022-10-31T03:11:59.964Z,9.83
2022-10-31T03:17:06.218Z,9.80
2022-10-31T03:22:17.563Z,9.76
2022-10-31T03:27:23.327Z,9.69
2022-10-31T03:32:28.242Z,9.72
2022-10-31T03:37:33.105Z,9.62
2022-10-31T03:42:36.873Z,9.55
2022-10-31T03:47:38.990Z,9.54
2022-10-31T03:52:49.134Z,9.50
2022-10-31T03:57:55.321Z,9.49
2022-10-31T04:03:02.403Z,9.45
2022-10-31T04:08:13.959Z,9.42
2022-10-31T04:18:33.141Z,9.27
2022-10-31T04:23:37.752Z,9.27
2022-10-31T04:28:56.138Z,9.22
2022-10-31T04:33:56.915Z,9.19
2022-10-31T04:38:59.138Z,9.14
2022-10-31T04:44:14.855Z,9.13
2022-10-31T04:49:15.831Z,9.15
2022-10-31T04:54:18.377Z,9.10
2022-10-31T04:59:45.276Z,9.10
2022-10-31T05:04:46.060Z,9.06
2022-10-31T05:09:48.263Z,9.01
2022-10-31T05:14:49.206Z,9.00
2022-10-31T05:20:18.419Z,8.95
2022-10-31T05:25:22.380Z,8.89
2022-10-31T05:30:26.150Z,8.85
2022-10-31T05:35:29.033Z,8.81
2022-10-31T05:40:49.666Z,8.73
2022-10-31T05:45:54.263Z,8.73
2022-10-31T05:51:15.028Z,8.69
2022-10-31T05:56:17.146Z,8.69
2022-10-31T06:01:17.977Z,8.65
2022-10-31T06:06:20.386Z,8.67
2022-10-31T06:11:22.521Z,8.67
2022-10-31T06:16:38.073Z,8.70
2022-10-31T06:22:01.642Z,8.67
2022-10-31T06:27:04.674Z,8.74
2022-10-31T06:32:06.963Z,8.77
2022-10-31T06:37:14.167Z,8.86
2022-10-31T06:42:19.766Z,8.91
2022-10-31T06:47:21.012Z,8.94
2022-10-31T06:52:21.832Z,9.02
2022-10-31T06:57:24.103Z,9.15
2022-10-31T07:02:25.240Z,9.20
2022-10-31T07:07:26.575Z,9.31
2022-10-31T07:12:29.118Z,9.35
2022-10-31T07:17:32.878Z,9.46
2022-10-31T07:22:35.795Z,9.61
2022-10-31T07:27:42.650Z,9.72
2022-10-31T07:32:46.826Z,9.80
2022-10-31T07:37:50.229Z,9.97
2022-10-31T07:42:55.126Z,10.08
2022-10-31T07:48:25.105Z,10.23
2022-10-31T07:53:44.136Z,10.38
2022-10-31T07:58:52.073Z,10.51
2022-10-31T08:03:53.212Z,10.63
2022-10-31T08:09:16.835Z,11.17
2022-10-31T08:14:20.314Z,11.37
2022-10-31T08:19:21.418Z,11.96
2022-10-31T08:24:24.233Z,12.03
2022-10-31T08:29:26.422Z,12.26
2022-10-31T08:34:27.963Z,12.29
2022-10-31T08:39:47.626Z,12.81
2022-10-31T08:44:50.052Z,12.73
2022-10-31T08:49:54.970Z,12.66
2022-10-31T08:54:56.713Z,12.65
2022-10-31T09:00:25.261Z,13.00
2022-10-31T09:05:32.367Z,13.23
2022-10-31T09:10:35.077Z,13.39
2022-10-31T09:15:41.383Z,13.68
2022-10-31T09:20:54.806Z,13.74
2022-10-31T09:25:56.571Z,13.99
2022-10-31T09:31:18.982Z,14.08
2022-10-31T09:36:28.780Z,14.12
2022-10-31T09:41:41.248Z,14.35
2022-10-31T09:46:57.819Z,14.51
2022-10-31T09:52:04.878Z,14.69
2022-10-31T09:57:07.644Z,14.74
2022-10-31T10:02:18.539Z,14.88
2022-10-31T10:07:27.785Z,15.01
2022-10-31T10:13:17.011Z,15.25
2022-10-31T10:18:30.408Z,15.47
2022-10-31T10:23:43.049Z,15.78
2022-10-31T10:28:46.931Z,15.96
2022-10-31T10:33:59.628Z,16.05
2022-10-31T10:39:04.869Z,16.23
2022-10-31T10:44:10.687Z,16.46
2022-10-31T10:49:30.291Z,16.66
2022-10-31T11:00:23.809Z,16.87
2022-10-31T11:05:32.592Z,17.13
2022-10-31T11:10:34.292Z,17.15
2022-10-31T11:15:39.779Z,17.33
2022-10-31T11:20:42.028Z,17.41
2022-10-31T11:25:50.567Z,17.47
2022-10-31T11:30:53.390Z,17.63
2022-10-31T11:35:58.114Z,17.78
2022-10-31T11:41:03.482Z,17.85
2022-10-31T11:46:11.629Z,18.01
2022-10-31T11:51:13.841Z,18.07
2022-10-31T11:56:16.673Z,18.24
2022-10-31T12:01:27.620Z,18.28
2022-10-31T12:06:33.973Z,18.29
2022-10-31T12:11:46.027Z,18.36
2022-10-31T12:16:53.091Z,18.36
2022-10-31T12:22:09.305Z,18.44
2022-10-31T12:27:21.851Z,18.52
2022-10-31T12:32:32.711Z,18.58
2022-10-31T12:37:49.701Z,18.79
2022-10-31T12:43:03.550Z,18.83
2022-10-31T12:48:21.473Z,18.85
2022-10-31T12:53:39.136Z,18.96
2022-10-31T12:58:47.103Z,18.91
2022-10-31T13:03:55.940Z,18.82
2022-10-31T13:09:01.888Z,18.73
2022-10-31T13:14:08.828Z,18.84
2022-10-31T13:19:18.203Z,18.94
2022-10-31T13:24:25.508Z,18.99
2022-10-31T13:29:32.840Z,19.01
2022-10-31T13:34:39.504Z,18.88
2022-10-31T13:39:54.590Z,18.87
2022-10-31T13:44:55.425Z,18.95
2022-10-31T13:50:07.067Z,19.02
2022-10-31T13:55:39.370Z,18.98
2022-10-31T14:00:40.240Z,18.96
2022-10-31T14:05:41.939Z,18.95
2022-10-31T14:10:50.416Z,18.93
2022-10-31T14:15:57.570Z,18.90
2022-10-31T14:20:58.494Z,18.79
2022-10-31T14:26:19.114Z,18.66
2022-10-31T14:31:35.786Z,18.51
2022-10-31T14:36:49.158Z,18.47
2022-10-31T14:42:05.020Z,18.27
2022-10-31T14:47:18.128Z,18.08
2022-10-31T14:52:22.162Z,17.85
2022-10-31T14:57:27.826Z,17.64
2022-10-31T15:02:31.842Z,17.42
2022-10-31T15:07:37.373Z,17.23
2022-10-31T15:12:40.040Z,17.06
2022-10-31T15:17:45.805Z,16.91
2022-10-31T15:22:47.059Z,16.70
2022-10-31T15:27:51.172Z,16.51
2022-10-31T15:33:01.099Z,16.30
2022-10-31T15:38:02.905Z,16.29
2022-10-31T15:43:08.639Z,16.14
2022-10-31T15:48:18.971Z,15.96
2022-10-31T15:53:22.850Z,15.92
2022-10-31T15:58:26.560Z,15.82
2022-10-31T16:03:30.867Z,15.77
2022-10-31T16:08:37.532Z,15.30
2022-10-31T16:13:54.363Z,14.99
2022-10-31T16:18:56.939Z,14.75
2022-10-31T16:24:05.782Z,14.63
2022-10-31T16:29:27.894Z,14.51
2022-10-31T16:34:29.084Z,14.44
2022-10-31T16:39:29.878Z,14.34
2022-10-31T16:44:32.043Z,14.36
2022-10-31T16:49:32.882Z,14.27
2022-10-31T16:54:33.980Z,14.18
2022-10-31T16:59:37.410Z,14.08
2022-10-31T17:04:38.521Z,14.06
2022-10-31T17:09:39.338Z,13.96
2022-10-31T17:14:41.501Z,13.90
2022-10-31T17:19:42.382Z,13.79
2022-10-31T17:24:43.197Z,13.71
2022-10-31T17:29:45.360Z,13.59
2022-10-31T17:34:47.032Z,13.48
2022-10-31T17:39:48.176Z,13.39
2022-10-31T17:44:50.456Z,13.39
2022-10-31T17:49:53.179Z,13.38
2022-10-31T17:54:53.973Z,13.31
2022-10-31T17:59:56.252Z,13.32
2022-10-31T18:04:57.075Z,13.35
2022-10-31T18:09:57.904Z,13.33
2022-10-31T18:15:00.362Z,13.36
2022-10-31T18:20:01.266Z,13.42
2022-10-31T18:25:02.539Z,13.41
2022-10-31T18:30:05.671Z,13.33
2022-10-31T18:35:07.165Z,13.33
2022-10-31T18:40:09.193Z,13.26
2022-10-31T18:45:31.275Z,13.26
2022-10-31T18:50:33.421Z,13.22
2022-10-31T18:55:34.177Z,13.12
2022-10-31T19:00:36.388Z,13.04
2022-10-31T19:05:37.245Z,13.01
2022-10-31T19:10:42.960Z,13.01
2022-10-31T19:15:45.519Z,12.85
2022-10-31T19:20:48.394Z,12.67
2022-10-31T19:25:49.228Z,12.56
2022-10-31T19:30:55.408Z,12.58
2022-10-31T19:36:00.460Z,12.62
2022-10-31T19:41:04.558Z,12.68
2022-10-31T19:46:17.345Z,12.67
2022-10-31T19:51:28.758Z,12.68
2022-10-31T19:56:29.598Z,12.64
2022-10-31T20:01:32.102Z,12.56
2022-10-31T20:06:35.449Z,12.35
2022-10-31T20:11:39.201Z,12.31
2022-10-31T20:16:41.971Z,12.28
2022-10-31T20:21:43.086Z,12.24
2022-10-31T20:26:43.927Z,12.22
2022-10-31T20:31:47.497Z,12.20
2022-10-31T20:36:48.447Z,12.22
2022-10-31T20:41:49.401Z,12.16
2022-10-31T20:46:51.559Z,12.09
2022-10-31T20:51:52.304Z,12.19
2022-10-31T20:56:53.324Z,12.10
2022-10-31T21:01:55.604Z,12.14
2022-10-31T21:06:56.480Z,12.16
2022-10-31T21:11:57.372Z,12.09
2022-10-31T21:16:59.544Z,12.03
2022-10-31T21:22:00.413Z,11.93
2022-10-31T21:27:02.818Z,11.87
2022-10-31T21:32:05.193Z,11.79
2022-10-31T21:37:06.195Z,11.78
2022-10-31T21:42:07.091Z,11.76
2022-10-31T21:47:09.262Z,11.72
2022-10-31T21:52:10.310Z,11.77
2022-10-31T21:57:11.240Z,11.69
2022-10-31T22:02:13.626Z,11.66
2022-10-31T22:07:14.893Z,11.53
2022-10-31T22:12:15.802Z,11.53
2022-10-31T22:17:17.996Z,11.49
2022-10-31T22:22:18.845Z,11.43
2022-10-31T22:27:19.746Z,11.41
2022-10-31T22:32:23.430Z,11.32
2022-10-31T22:37:24.311Z,11.26
2022-10-31T22:42:25.055Z,11.23
2022-10-31T22:47:27.209Z,11.25
2022-10-31T22:52:29.110Z,11.27
2022-10-31T22:57:29.862Z,11.11
2022-10-31T23:02:32.073Z,11.05
2022-10-31T23:07:33.204Z,11.12
2022-10-31T23:12:51.373Z,11.09
2022-10-31T23:17:53.514Z,11.20
2022-10-31T23:22:54.275Z,11.19
2022-10-31T23:27:55.078Z,11.20
2022-10-31T23:32:57.276Z,11.23
2022-10-31T23:37:58.624Z,11.31
2022-10-31T23:42:59.626Z,11.24
2022-10-31T23:48:02.125Z,11.20
2022-10-31T23:53:03.204Z,11.19
2022-10-31T23:58:04.307Z,11.22
